Thomson Dream — 9HA2381 — position and weather

sailwx.info

Track history (hours):
 
Tides and Currents Weather Stations Pressure Air Temp Water Temp Dewpoint Dewpoint Depression Visibility Wind Speed Wind Dir Waves Ship Positions

Thomson Dream

Last reported at 2018-May-25 19:30 UTC. Time now 2018-May-26 02:36 UTC.
Position N 36°45' W 007°59'.

Length 243 m; draft 7.6 m.

Type: Ship. MMSI: 248480975.

Date/timePositionNaut miles runAvg speedWind from/ knotsBaromVisibWave heightAir tempDewpointWater temp
2018-May-25 19:30N 36°45' W 007°59'916.4
2018-May-25 18:58N 36°50' W 008°08'716.0
2018-May-25 18:30N 36°54' W 008°16'816.9
2018-May-25 18:00N 36°59' W 008°25'815.7
2018-May-25 17:30N 37°04' W 008°32'3 4.9
2018-May-25 17:00N 37°06' W 008°32'0 0.2
2018-May-25 16:27N 37°06' W 008°32'0 0.0
2018-May-25 15:51N 37°06' W 008°32'0 0.0
2018-May-25 15:15N 37°06' W 008°32'0 0.0
2018-May-25 14:51N 37°06' W 008°32'0 0.0
2018-May-25 14:19N 37°06' W 008°32'0 0.0
2018-May-25 14:00N 37°06' W 008°32'0 0.0
2018-May-25 13:16N 37°06' W 008°32'0 0.1
2018-May-25 12:54N 37°06' W 008°32'0 0.0
2018-May-25 12:18N 37°06' W 008°32'0 0.0
2018-May-25 12:00N 37°06' W 008°32'0 0.0
2018-May-25 11:26N 37°06' W 008°32'0 0.0
2018-May-25 10:56N 37°06' W 008°32'0 0.0
2018-May-25 10:28N 37°06' W 008°32'0 0.0
2018-May-25 09:47N 37°06' W 008°32'0 0.1
2018-May-25 09:30N 37°06' W 008°32'0 0.0
2018-May-25 08:56N 37°06' W 008°32'0 0.0
2018-May-25 08:26N 37°06' W 008°32'0 0.0
2018-May-25 07:59N 37°06' W 008°32'0 0.0
2018-May-25 07:30N 37°06' W 008°32'0 0.0
2018-May-25 06:54N 37°06' W 008°32'0 0.0
2018-May-25 06:28N 37°06' W 008°32'0 0.2
2018-May-25 06:01N 37°06' W 008°32'2 3.6
2018-May-25 05:31N 37°04' W 008°32'5 9.5
2018-May-25 05:00N 36°59' W 008°32'611.1
2018-May-25 04:30N 36°54' W 008°31'711.1
2018-May-25 03:55N 36°51' W 008°23'511.8
2018-May-25 03:30N 36°49' W 008°18'611.5
2018-May-25 03:00N 36°47' W 008°11'130 5.2
2018-May-24 01:57N 35°57' W 005°42'715.2
2018-May-24 01:30N 35°58' W 005°34'815.1
2018-May-24 01:00N 36°00' W 005°25'816.0
2018-May-24 00:30N 36°03' W 005°16'917.2
2018-May-24 00:00N 36°04' W 005°05'21618.1
2018-May-23 12:03N 37°09' W 000°48'119.2
2018-May-23 12:00N 37°10' W 000°47'1019.3
2018-May-23 11:30N 37°15' W 000°37'919.1
2018-May-23 11:00N 37°20' W 000°27'1019.1
2018-May-23 10:30N 37°26' W 000°17'1019.1
2018-May-23 10:00N 37°31' W 000°07'1019.3
2018-May-23 09:30N 37°36' E 000°03'3919.3
2018-May-23 07:27N 37°58' E 000°45'3219.0
2018-May-23 05:46N 38°16' E 001°19'519.0
2018-May-23 05:30N 38°18' E 001°24'1019.1
2018-May-23 04:59N 38°24' E 001°35'1118.9
2018-May-23 04:24N 38°31' E 001°46'718.9
2018-May-23 04:00N 38°35' E 001°54'918.7
2018-May-23 03:30N 38°43' E 002°00'1019.0
2018-May-23 03:00N 38°51' E 002°06'3619.1
2018-May-23 01:08N 39°21' E 002°31'518.8
2018-May-23 00:54N 39°25' E 002°34'717.6
2018-May-23 00:30N 39°31' E 002°38'2 3.1
2018-May-22 23:59N 39°33' E 002°38'0 0.0
2018-May-22 23:29N 39°33' E 002°38'0 0.0
2018-May-22 22:59N 39°33' E 002°38'0 0.0
2018-May-22 22:29N 39°33' E 002°38'0 0.0
2018-May-22 21:59N 39°33' E 002°38'0 0.0
2018-May-22 21:28N 39°33' E 002°38'0 0.0
2018-May-22 20:58N 39°33' E 002°38'0 0.0
2018-May-22 20:28N 39°33' E 002°38'0 0.0
2018-May-22 19:58N 39°33' E 002°38'0 0.0
2018-May-22 19:28N 39°33' E 002°38'0 0.0
2018-May-22 18:58N 39°33' E 002°38'0 0.0
2018-May-22 18:28N 39°33' E 002°38'0 0.0
2018-May-22 17:58N 39°33' E 002°38'0 0.0
2018-May-22 17:28N 39°33' E 002°38'0 0.0
2018-May-22 16:58N 39°33' E 002°38'0 0.0
2018-May-22 16:28N 39°33' E 002°38'0 0.0
2018-May-22 15:58N 39°33' E 002°38'0 0.0
2018-May-22 15:28N 39°33' E 002°38'0 0.0
2018-May-22 14:58N 39°33' E 002°38'0 0.0
2018-May-22 14:28N 39°33' E 002°38'0 0.0
2018-May-22 13:58N 39°33' E 002°38'0 0.0
2018-May-22 13:28N 39°33' E 002°38'0 0.0
2018-May-22 12:58N 39°33' E 002°38'0 0.0
2018-May-22 12:28N 39°33' E 002°38'0 0.0
2018-May-22 11:58N 39°33' E 002°38'0 0.0
2018-May-22 11:28N 39°33' E 002°38'0 0.0
2018-May-22 10:54N 39°33' E 002°38'0 0.0
2018-May-22 10:30N 39°33' E 002°38'0 0.0
2018-May-22 10:00N 39°33' E 002°38'0 0.0
2018-May-22 09:27N 39°33' E 002°38'0 0.0
2018-May-22 09:00N 39°33' E 002°38'0 0.0
2018-May-22 08:30N 39°33' E 002°38'0 0.0
2018-May-22 08:00N 39°33' E 002°38'0 0.0
2018-May-22 07:27N 39°33' E 002°38'0 0.0
2018-May-22 07:00N 39°33' E 002°38'0 0.0
2018-May-22 06:30N 39°33' E 002°38'0 0.0
2018-May-22 06:00N 39°33' E 002°38'0 0.0
2018-May-22 05:30N 39°33' E 002°38'0 0.0
2018-May-22 04:59N 39°33' E 002°38'0 0.0
2018-May-22 04:29N 39°33' E 002°38'0 0.0
2018-May-22 03:59N 39°33' E 002°38'0 0.0
2018-May-22 03:30N 39°33' E 002°38'1 1.1
2018-May-22 03:01N 39°33' E 002°38'4 8.1
2018-May-22 02:30N 39°29' E 002°37'816.0
2018-May-22 02:00N 39°23' E 002°30'715.0
2018-May-22 01:30N 39°26' E 002°21'10216.6
2018-May-21 19:21N 41°07' E 002°10'617.7
2018-May-21 19:00N 41°13' E 002°11'612.0
2018-May-21 18:30N 41°19' E 002°10'2 4.6
2018-May-21 17:59N 41°22' E 002°11'0 0.0
2018-May-21 17:29N 41°22' E 002°11'0 0.0
2018-May-21 16:59N 41°22' E 002°11'0 0.0
2018-May-21 16:29N 41°22' E 002°11'0 0.0
2018-May-21 15:59N 41°22' E 002°11'0 0.0
2018-May-21 15:17N 41°22' E 002°11'0 0.0
2018-May-21 14:59N 41°22' E 002°11'0 0.0
2018-May-21 14:29N 41°22' E 002°11'0 0.0
2018-May-21 13:53N 41°22' E 002°11'0 0.0
2018-May-21 13:23N 41°22' E 002°11'0 0.0
2018-May-21 12:53N 41°22' E 002°11'0 0.0
2018-May-21 12:23N 41°22' E 002°11'0 0.0
2018-May-21 11:38N 41°22' E 002°11'0 0.0
2018-May-21 11:29N 41°22' E 002°11'0 0.0
2018-May-21 10:56N 41°22' E 002°11'0 0.0
2018-May-21 10:29N 41°22' E 002°11'0 0.0
2018-May-21 09:59N 41°22' E 002°11'0 0.0
2018-May-21 09:27N 41°22' E 002°11'0 0.6
2018-May-21 09:00N 41°21' E 002°11'3 6.9
2018-May-21 08:30N 41°18' E 002°11'4 8.1
2018-May-21 08:01N 41°16' E 002°15'713.8
2018-May-21 07:31N 41°16' E 002°24'38410.9
2018-May-19 20:16N 41°52' E 010°56'417.2
2018-May-19 20:00N 41°54' E 011°01'917.3
2018-May-19 19:30N 41°57' E 011°12'143 5.8
2018-May-18 18:51N 40°34' E 013°47'412.2
2018-May-18 18:30N 40°35' E 013°53'612.4
2018-May-18 18:00N 40°37' E 014°00'612.5
2018-May-18 17:30N 40°39' E 014°08'612.2
2018-May-18 17:01N 40°40' E 014°16'510.0
2018-May-18 16:30N 40°39' E 014°22'0 0.3
2018-May-18 15:58N 40°38' E 014°23'0 0.0
2018-May-18 15:28N 40°38' E 014°23'0 0.0
2018-May-18 14:58N 40°38' E 014°23'0 0.1
2018-May-18 14:29N 40°38' E 014°23'0 0.0
2018-May-18 14:01N 40°38' E 014°23'0 0.0
2018-May-18 13:31N 40°38' E 014°23'0 0.0
2018-May-18 13:01N 40°38' E 014°23'0 0.1
2018-May-18 12:31N 40°38' E 014°23'0 0.1
2018-May-18 11:58N 40°38' E 014°23'0 0.2
2018-May-18 11:31N 40°38' E 014°23'0 0.1
2018-May-18 11:00N 40°38' E 014°23'0 0.0
2018-May-18 10:31N 40°38' E 014°22'0 0.2
2018-May-18 10:01N 40°38' E 014°23'0 0.0
2018-May-18 09:27N 40°38' E 014°23'0 0.0
2018-May-18 09:00N 40°38' E 014°23'0 0.0
2018-May-18 08:30N 40°38' E 014°23'0 0.0
2018-May-18 08:00N 40°38' E 014°23'0 0.0
2018-May-18 07:30N 40°38' E 014°23'0 0.0
2018-May-18 07:00N 40°38' E 014°23'0 0.0
2018-May-18 06:30N 40°38' E 014°23'0 0.0
2018-May-18 05:59N 40°38' E 014°23'0 0.0
2018-May-18 05:25N 40°38' E 014°23'0 0.0
2018-May-18 04:58N 40°38' E 014°23'0 0.0
2018-May-18 04:28N 40°38' E 014°23'0 0.0
2018-May-18 03:58N 40°38' E 014°23'0 0.1
2018-May-18 03:30N 40°38' E 014°23'2 3.8
2018-May-18 03:00N 40°40' E 014°21'611.6
2018-May-18 02:30N 40°37' E 014°14'714.8
2018-May-18 02:01N 40°32' E 014°07'915.4
2018-May-18 01:26N 40°24' E 014°01'715.6
2018-May-18 00:59N 40°18' E 013°56'432 9.6
2018-May-16 04:00N 38°48' E 004°48'6015.6 260 / 121014.110.8 18.6 9.617.0
2018-May-16 00:10N 38°59' E 003°33'316.2
2018-May-15 23:59N 38°59' E 003°29'816.5
2018-May-15 23:30N 39°00' E 003°19'816.6
2018-May-15 23:00N 39°01' E 003°08'917.4
2018-May-15 22:30N 39°02' E 002°57'815.7
2018-May-15 21:58N 39°07' E 002°48'817.6
2018-May-15 21:30N 39°14' E 002°44'917.2
2018-May-15 20:59N 39°23' E 002°41'817.0
2018-May-15 20:30N 39°31' E 002°39'2 4.4
2018-May-15 19:59N 39°33' E 002°38'  
Track history (hours):
 
Tides and Currents Weather Stations Pressure Air Temp Water Temp Dewpoint Dewpoint Depression Visibility Wind Speed Wind Dir Waves Ship Positions

Thomson Dream

Last reported at 2018-May-25 19:30 UTC. Time now 2018-May-26 02:36 UTC.
Position N 36°45' W 007°59'.

Length 243 m; draft 7.6 m.

Type: Ship. MMSI: 248480975.

Date/timePositionNaut miles runAvg speedWind from/ knotsBaromVisibWave heightAir tempDewpointWater temp
2018-May-25 19:30N 36°45' W 007°59'916.4
2018-May-25 18:58N 36°50' W 008°08'716.0
2018-May-25 18:30N 36°54' W 008°16'816.9
2018-May-25 18:00N 36°59' W 008°25'815.7
2018-May-25 17:30N 37°04' W 008°32'3 4.9
2018-May-25 17:00N 37°06' W 008°32'0 0.2
2018-May-25 16:27N 37°06' W 008°32'0 0.0
2018-May-25 15:51N 37°06' W 008°32'0 0.0
2018-May-25 15:15N 37°06' W 008°32'0 0.0
2018-May-25 14:51N 37°06' W 008°32'0 0.0
2018-May-25 14:19N 37°06' W 008°32'0 0.0
2018-May-25 14:00N 37°06' W 008°32'0 0.0
2018-May-25 13:16N 37°06' W 008°32'0 0.1
2018-May-25 12:54N 37°06' W 008°32'0 0.0
2018-May-25 12:18N 37°06' W 008°32'0 0.0
2018-May-25 12:00N 37°06' W 008°32'0 0.0
2018-May-25 11:26N 37°06' W 008°32'0 0.0
2018-May-25 10:56N 37°06' W 008°32'0 0.0
2018-May-25 10:28N 37°06' W 008°32'0 0.0
2018-May-25 09:47N 37°06' W 008°32'0 0.1
2018-May-25 09:30N 37°06' W 008°32'0 0.0
2018-May-25 08:56N 37°06' W 008°32'0 0.0
2018-May-25 08:26N 37°06' W 008°32'0 0.0
2018-May-25 07:59N 37°06' W 008°32'0 0.0
2018-May-25 07:30N 37°06' W 008°32'0 0.0
2018-May-25 06:54N 37°06' W 008°32'0 0.0
2018-May-25 06:28N 37°06' W 008°32'0 0.2
2018-May-25 06:01N 37°06' W 008°32'2 3.6
2018-May-25 05:31N 37°04' W 008°32'5 9.5
2018-May-25 05:00N 36°59' W 008°32'611.1
2018-May-25 04:30N 36°54' W 008°31'711.1
2018-May-25 03:55N 36°51' W 008°23'511.8
2018-May-25 03:30N 36°49' W 008°18'611.5
2018-May-25 03:00N 36°47' W 008°11'130 5.2
2018-May-24 01:57N 35°57' W 005°42'715.2
2018-May-24 01:30N 35°58' W 005°34'815.1
2018-May-24 01:00N 36°00' W 005°25'816.0
2018-May-24 00:30N 36°03' W 005°16'917.2
2018-May-24 00:00N 36°04' W 005°05'21618.1
2018-May-23 12:03N 37°09' W 000°48'119.2
2018-May-23 12:00N 37°10' W 000°47'1019.3
2018-May-23 11:30N 37°15' W 000°37'919.1
2018-May-23 11:00N 37°20' W 000°27'1019.1
2018-May-23 10:30N 37°26' W 000°17'1019.1
2018-May-23 10:00N 37°31' W 000°07'1019.3
2018-May-23 09:30N 37°36' E 000°03'3919.3
2018-May-23 07:27N 37°58' E 000°45'3219.0
2018-May-23 05:46N 38°16' E 001°19'519.0
2018-May-23 05:30N 38°18' E 001°24'1019.1
2018-May-23 04:59N 38°24' E 001°35'1118.9
2018-May-23 04:24N 38°31' E 001°46'718.9
2018-May-23 04:00N 38°35' E 001°54'918.7
2018-May-23 03:30N 38°43' E 002°00'1019.0
2018-May-23 03:00N 38°51' E 002°06'3619.1
2018-May-23 01:08N 39°21' E 002°31'518.8
2018-May-23 00:54N 39°25' E 002°34'717.6
2018-May-23 00:30N 39°31' E 002°38'2 3.1
2018-May-22 23:59N 39°33' E 002°38'0 0.0
2018-May-22 23:29N 39°33' E 002°38'0 0.0
2018-May-22 22:59N 39°33' E 002°38'0 0.0
2018-May-22 22:29N 39°33' E 002°38'0 0.0
2018-May-22 21:59N 39°33' E 002°38'0 0.0
2018-May-22 21:28N 39°33' E 002°38'0 0.0
2018-May-22 20:58N 39°33' E 002°38'0 0.0
2018-May-22 20:28N 39°33' E 002°38'0 0.0
2018-May-22 19:58N 39°33' E 002°38'0 0.0
2018-May-22 19:28N 39°33' E 002°38'0 0.0
2018-May-22 18:58N 39°33' E 002°38'0 0.0
2018-May-22 18:28N 39°33' E 002°38'0 0.0
2018-May-22 17:58N 39°33' E 002°38'0 0.0
2018-May-22 17:28N 39°33' E 002°38'0 0.0
2018-May-22 16:58N 39°33' E 002°38'0 0.0
2018-May-22 16:28N 39°33' E 002°38'0 0.0
2018-May-22 15:58N 39°33' E 002°38'0 0.0
2018-May-22 15:28N 39°33' E 002°38'0 0.0
2018-May-22 14:58N 39°33' E 002°38'0 0.0
2018-May-22 14:28N 39°33' E 002°38'0 0.0
2018-May-22 13:58N 39°33' E 002°38'0 0.0
2018-May-22 13:28N 39°33' E 002°38'0 0.0
2018-May-22 12:58N 39°33' E 002°38'0 0.0
2018-May-22 12:28N 39°33' E 002°38'0 0.0
2018-May-22 11:58N 39°33' E 002°38'0 0.0
2018-May-22 11:28N 39°33' E 002°38'0 0.0
2018-May-22 10:54N 39°33' E 002°38'0 0.0
2018-May-22 10:30N 39°33' E 002°38'0 0.0
2018-May-22 10:00N 39°33' E 002°38'0 0.0
2018-May-22 09:27N 39°33' E 002°38'0 0.0
2018-May-22 09:00N 39°33' E 002°38'0 0.0
2018-May-22 08:30N 39°33' E 002°38'0 0.0
2018-May-22 08:00N 39°33' E 002°38'0 0.0
2018-May-22 07:27N 39°33' E 002°38'0 0.0
2018-May-22 07:00N 39°33' E 002°38'0 0.0
2018-May-22 06:30N 39°33' E 002°38'0 0.0
2018-May-22 06:00N 39°33' E 002°38'0 0.0
2018-May-22 05:30N 39°33' E 002°38'0 0.0
2018-May-22 04:59N 39°33' E 002°38'0 0.0
2018-May-22 04:29N 39°33' E 002°38'0 0.0
2018-May-22 03:59N 39°33' E 002°38'0 0.0
2018-May-22 03:30N 39°33' E 002°38'1 1.1
2018-May-22 03:01N 39°33' E 002°38'4 8.1
2018-May-22 02:30N 39°29' E 002°37'816.0
2018-May-22 02:00N 39°23' E 002°30'715.0
2018-May-22 01:30N 39°26' E 002°21'10216.6
2018-May-21 19:21N 41°07' E 002°10'617.7
2018-May-21 19:00N 41°13' E 002°11'612.0
2018-May-21 18:30N 41°19' E 002°10'2 4.6
2018-May-21 17:59N 41°22' E 002°11'0 0.0
2018-May-21 17:29N 41°22' E 002°11'0 0.0
2018-May-21 16:59N 41°22' E 002°11'0 0.0
2018-May-21 16:29N 41°22' E 002°11'0 0.0
2018-May-21 15:59N 41°22' E 002°11'0 0.0
2018-May-21 15:17N 41°22' E 002°11'0 0.0
2018-May-21 14:59N 41°22' E 002°11'0 0.0
2018-May-21 14:29N 41°22' E 002°11'0 0.0
2018-May-21 13:53N 41°22' E 002°11'0 0.0
2018-May-21 13:23N 41°22' E 002°11'0 0.0
2018-May-21 12:53N 41°22' E 002°11'0 0.0
2018-May-21 12:23N 41°22' E 002°11'0 0.0
2018-May-21 11:38N 41°22' E 002°11'0 0.0
2018-May-21 11:29N 41°22' E 002°11'0 0.0
2018-May-21 10:56N 41°22' E 002°11'0 0.0
2018-May-21 10:29N 41°22' E 002°11'0 0.0
2018-May-21 09:59N 41°22' E 002°11'0 0.0
2018-May-21 09:27N 41°22' E 002°11'0 0.6
2018-May-21 09:00N 41°21' E 002°11'3 6.9
2018-May-21 08:30N 41°18' E 002°11'4 8.1
2018-May-21 08:01N 41°16' E 002°15'713.8
2018-May-21 07:31N 41°16' E 002°24'38410.9
2018-May-19 20:16N 41°52' E 010°56'417.2
2018-May-19 20:00N 41°54' E 011°01'917.3
2018-May-19 19:30N 41°57' E 011°12'143 5.8
2018-May-18 18:51N 40°34' E 013°47'412.2
2018-May-18 18:30N 40°35' E 013°53'612.4
2018-May-18 18:00N 40°37' E 014°00'612.5
2018-May-18 17:30N 40°39' E 014°08'612.2
2018-May-18 17:01N 40°40' E 014°16'510.0
2018-May-18 16:30N 40°39' E 014°22'0 0.3
2018-May-18 15:58N 40°38' E 014°23'0 0.0
2018-May-18 15:28N 40°38' E 014°23'0 0.0
2018-May-18 14:58N 40°38' E 014°23'0 0.1
2018-May-18 14:29N 40°38' E 014°23'0 0.0
2018-May-18 14:01N 40°38' E 014°23'0 0.0
2018-May-18 13:31N 40°38' E 014°23'0 0.0
2018-May-18 13:01N 40°38' E 014°23'0 0.1
2018-May-18 12:31N 40°38' E 014°23'0 0.1
2018-May-18 11:58N 40°38' E 014°23'0 0.2
2018-May-18 11:31N 40°38' E 014°23'0 0.1
2018-May-18 11:00N 40°38' E 014°23'0 0.0
2018-May-18 10:31N 40°38' E 014°22'0 0.2
2018-May-18 10:01N 40°38' E 014°23'0 0.0
2018-May-18 09:27N 40°38' E 014°23'0 0.0
2018-May-18 09:00N 40°38' E 014°23'0 0.0
2018-May-18 08:30N 40°38' E 014°23'0 0.0
2018-May-18 08:00N 40°38' E 014°23'0 0.0
2018-May-18 07:30N 40°38' E 014°23'0 0.0
2018-May-18 07:00N 40°38' E 014°23'0 0.0
2018-May-18 06:30N 40°38' E 014°23'0 0.0
2018-May-18 05:59N 40°38' E 014°23'0 0.0
2018-May-18 05:25N 40°38' E 014°23'0 0.0
2018-May-18 04:58N 40°38' E 014°23'0 0.0
2018-May-18 04:28N 40°38' E 014°23'0 0.0
2018-May-18 03:58N 40°38' E 014°23'0 0.1
2018-May-18 03:30N 40°38' E 014°23'2 3.8
2018-May-18 03:00N 40°40' E 014°21'611.6
2018-May-18 02:30N 40°37' E 014°14'714.8
2018-May-18 02:01N 40°32' E 014°07'915.4
2018-May-18 01:26N 40°24' E 014°01'715.6
2018-May-18 00:59N 40°18' E 013°56'432 9.6
2018-May-16 04:00N 38°48' E 004°48'6015.6 260 / 121014.110.8 18.6 9.617.0
2018-May-16 00:10N 38°59' E 003°33'316.2
2018-May-15 23:59N 38°59' E 003°29'816.5
2018-May-15 23:30N 39°00' E 003°19'816.6
2018-May-15 23:00N 39°01' E 003°08'917.4
2018-May-15 22:30N 39°02' E 002°57'815.7
2018-May-15 21:58N 39°07' E 002°48'817.6
2018-May-15 21:30N 39°14' E 002°44'917.2
2018-May-15 20:59N 39°23' E 002°41'817.0
2018-May-15 20:30N 39°31' E 002°39'2 4.4
2018-May-15 19:59N 39°33' E 002°38'  

Dump ship's entire track history